sensor_id;sensor_type;location;lat;lon;timestamp;P1;durP1;ratioP1;P2;durP2;ratioP2
12308;SDS011;6217;48.150;17.142;2023-11-19T00:03:51;6.45;;;4.90;;
12308;SDS011;6217;48.150;17.142;2023-11-19T00:07:56;7.10;;;5.50;;
12308;SDS011;6217;48.150;17.142;2023-11-19T00:12:03;6.47;;;5.25;;
12308;SDS011;6217;48.150;17.142;2023-11-19T00:16:10;11.93;;;5.85;;
12308;SDS011;6217;48.150;17.142;2023-11-19T00:20:18;8.18;;;5.72;;
12308;SDS011;6217;48.150;17.142;2023-11-19T00:24:24;7.25;;;4.55;;
12308;SDS011;6217;48.150;17.142;2023-11-19T00:28:30;8.55;;;4.85;;
12308;SDS011;6217;48.150;17.142;2023-11-19T00:32:38;6.90;;;6.20;;
12308;SDS011;6217;48.150;17.142;2023-11-19T00:36:44;10.20;;;6.97;;
12308;SDS011;6217;48.150;17.142;2023-11-19T00:40:50;8.63;;;6.20;;
12308;SDS011;6217;48.150;17.142;2023-11-19T00:44:56;8.95;;;5.97;;
12308;SDS011;6217;48.150;17.142;2023-11-19T00:49:03;9.27;;;6.60;;
12308;SDS011;6217;48.150;17.142;2023-11-19T00:53:09;8.63;;;5.90;;
12308;SDS011;6217;48.150;17.142;2023-11-19T00:57:15;9.18;;;6.13;;
12308;SDS011;6217;48.150;17.142;2023-11-19T01:01:21;11.93;;;7.32;;
12308;SDS011;6217;48.150;17.142;2023-11-19T01:05:27;13.65;;;7.60;;
12308;SDS011;6217;48.150;17.142;2023-11-19T01:09:33;10.60;;;7.20;;
12308;SDS011;6217;48.150;17.142;2023-11-19T01:13:40;15.23;;;10.15;;
12308;SDS011;6217;48.150;17.142;2023-11-19T01:17:46;11.35;;;8.85;;
12308;SDS011;6217;48.150;17.142;2023-11-19T01:21:52;13.38;;;7.55;;
12308;SDS011;6217;48.150;17.142;2023-11-19T01:25:58;17.60;;;9.68;;
12308;SDS011;6217;48.150;17.142;2023-11-19T01:30:04;14.30;;;9.35;;
12308;SDS011;6217;48.150;17.142;2023-11-19T01:34:14;11.88;;;8.35;;
12308;SDS011;6217;48.150;17.142;2023-11-19T01:38:20;12.32;;;7.75;;
12308;SDS011;6217;48.150;17.142;2023-11-19T01:42:26;12.98;;;9.13;;
12308;SDS011;6217;48.150;17.142;2023-11-19T01:46:33;12.15;;;9.02;;
12308;SDS011;6217;48.150;17.142;2023-11-19T01:50:41;10.82;;;8.55;;
12308;SDS011;6217;48.150;17.142;2023-11-19T01:54:47;12.73;;;8.65;;
12308;SDS011;6217;48.150;17.142;2023-11-19T01:58:54;9.57;;;7.70;;
12308;SDS011;6217;48.150;17.142;2023-11-19T02:03:01;14.63;;;8.32;;
12308;SDS011;6217;48.150;17.142;2023-11-19T02:07:08;14.50;;;9.43;;
12308;SDS011;6217;48.150;17.142;2023-11-19T02:11:15;16.10;;;8.43;;
12308;SDS011;6217;48.150;17.142;2023-11-19T02:15:21;11.20;;;7.90;;
12308;SDS011;6217;48.150;17.142;2023-11-19T02:19:29;13.25;;;7.95;;
12308;SDS011;6217;48.150;17.142;2023-11-19T02:23:35;11.90;;;8.57;;
12308;SDS011;6217;48.150;17.142;2023-11-19T02:27:54;13.07;;;7.78;;
12308;SDS011;6217;48.150;17.142;2023-11-19T02:32:05;11.35;;;8.15;;
12308;SDS011;6217;48.150;17.142;2023-11-19T02:36:14;13.43;;;8.23;;
12308;SDS011;6217;48.150;17.142;2023-11-19T02:40:22;13.45;;;9.55;;
12308;SDS011;6217;48.150;17.142;2023-11-19T02:44:29;18.17;;;9.20;;
12308;SDS011;6217;48.150;17.142;2023-11-19T02:48:35;14.57;;;6.75;;
12308;SDS011;6217;48.150;17.142;2023-11-19T02:52:41;12.10;;;7.25;;
12308;SDS011;6217;48.150;17.142;2023-11-19T02:56:51;9.73;;;7.47;;
12308;SDS011;6217;48.150;17.142;2023-11-19T03:01:00;13.30;;;7.97;;
12308;SDS011;6217;48.150;17.142;2023-11-19T03:05:15;12.02;;;9.10;;
12308;SDS011;6217;48.150;17.142;2023-11-19T03:09:21;9.75;;;7.18;;
12308;SDS011;6217;48.150;17.142;2023-11-19T03:13:29;14.15;;;10.05;;
12308;SDS011;6217;48.150;17.142;2023-11-19T03:17:38;14.73;;;10.70;;
12308;SDS011;6217;48.150;17.142;2023-11-19T03:21:45;12.15;;;9.43;;
12308;SDS011;6217;48.150;17.142;2023-11-19T03:25:51;15.18;;;9.32;;
12308;SDS011;6217;48.150;17.142;2023-11-19T03:29:57;12.07;;;8.13;;
12308;SDS011;6217;48.150;17.142;2023-11-19T03:34:03;9.68;;;6.70;;
12308;SDS011;6217;48.150;17.142;2023-11-19T03:38:08;9.15;;;5.93;;
12308;SDS011;6217;48.150;17.142;2023-11-19T03:42:14;10.55;;;6.35;;
12308;SDS011;6217;48.150;17.142;2023-11-19T03:46:20;8.25;;;4.95;;
12308;SDS011;6217;48.150;17.142;2023-11-19T03:50:27;9.57;;;6.25;;
12308;SDS011;6217;48.150;17.142;2023-11-19T03:54:32;7.72;;;5.57;;
12308;SDS011;6217;48.150;17.142;2023-11-19T03:58:38;8.07;;;5.93;;
12308;SDS011;6217;48.150;17.142;2023-11-19T04:02:44;9.18;;;6.20;;
12308;SDS011;6217;48.150;17.142;2023-11-19T04:06:52;9.88;;;5.72;;
12308;SDS011;6217;48.150;17.142;2023-11-19T04:10:59;8.13;;;5.53;;
12308;SDS011;6217;48.150;17.142;2023-11-19T04:15:06;6.90;;;4.70;;
12308;SDS011;6217;48.150;17.142;2023-11-19T04:19:12;7.22;;;5.47;;
12308;SDS011;6217;48.150;17.142;2023-11-19T04:23:18;8.18;;;6.13;;
12308;SDS011;6217;48.150;17.142;2023-11-19T04:27:24;7.97;;;5.15;;
12308;SDS011;6217;48.150;17.142;2023-11-19T04:31:30;10.02;;;6.43;;
12308;SDS011;6217;48.150;17.142;2023-11-19T04:35:39;8.75;;;5.95;;
12308;SDS011;6217;48.150;17.142;2023-11-19T04:39:44;11.23;;;6.30;;
12308;SDS011;6217;48.150;17.142;2023-11-19T04:43:51;10.27;;;5.80;;
12308;SDS011;6217;48.150;17.142;2023-11-19T04:47:57;8.57;;;6.13;;
12308;SDS011;6217;48.150;17.142;2023-11-19T04:52:03;10.30;;;7.22;;
12308;SDS011;6217;48.150;17.142;2023-11-19T04:56:10;9.80;;;7.28;;
12308;SDS011;6217;48.150;17.142;2023-11-19T05:00:18;8.98;;;6.60;;
12308;SDS011;6217;48.150;17.142;2023-11-19T05:04:23;12.63;;;7.60;;
12308;SDS011;6217;48.150;17.142;2023-11-19T05:08:29;12.38;;;7.93;;
12308;SDS011;6217;48.150;17.142;2023-11-19T05:12:35;13.60;;;8.15;;
12308;SDS011;6217;48.150;17.142;2023-11-19T05:16:41;12.43;;;8.13;;
12308;SDS011;6217;48.150;17.142;2023-11-19T05:20:48;11.70;;;8.30;;
12308;SDS011;6217;48.150;17.142;2023-11-19T05:24:54;9.88;;;6.93;;
12308;SDS011;6217;48.150;17.142;2023-11-19T05:29:01;9.73;;;6.50;;
12308;SDS011;6217;48.150;17.142;2023-11-19T05:33:07;10.13;;;6.70;;
12308;SDS011;6217;48.150;17.142;2023-11-19T05:37:13;7.63;;;6.20;;
12308;SDS011;6217;48.150;17.142;2023-11-19T05:41:19;10.20;;;6.93;;
12308;SDS011;6217;48.150;17.142;2023-11-19T05:45:25;8.85;;;6.20;;
12308;SDS011;6217;48.150;17.142;2023-11-19T05:49:31;8.95;;;6.30;;
12308;SDS011;6217;48.150;17.142;2023-11-19T05:53:37;9.50;;;7.50;;
12308;SDS011;6217;48.150;17.142;2023-11-19T05:57:43;9.75;;;7.28;;
12308;SDS011;6217;48.150;17.142;2023-11-19T06:01:50;11.85;;;5.57;;
12308;SDS011;6217;48.150;17.142;2023-11-19T06:05:56;9.38;;;6.35;;
12308;SDS011;6217;48.150;17.142;2023-11-19T06:10:02;11.48;;;7.28;;
12308;SDS011;6217;48.150;17.142;2023-11-19T06:14:10;9.65;;;6.90;;
12308;SDS011;6217;48.150;17.142;2023-11-19T06:18:16;11.60;;;8.25;;
12308;SDS011;6217;48.150;17.142;2023-11-19T06:22:25;10.85;;;6.35;;
12308;SDS011;6217;48.150;17.142;2023-11-19T06:26:30;10.05;;;6.60;;
12308;SDS011;6217;48.150;17.142;2023-11-19T06:30:36;9.73;;;7.43;;
12308;SDS011;6217;48.150;17.142;2023-11-19T06:34:42;8.88;;;6.28;;
12308;SDS011;6217;48.150;17.142;2023-11-19T06:38:48;9.88;;;7.32;;
12308;SDS011;6217;48.150;17.142;2023-11-19T06:42:54;12.45;;;7.55;;
12308;SDS011;6217;48.150;17.142;2023-11-19T06:47:00;12.20;;;7.55;;
12308;SDS011;6217;48.150;17.142;2023-11-19T06:51:06;9.50;;;7.10;;
12308;SDS011;6217;48.150;17.142;2023-11-19T06:55:12;7.88;;;5.97;;
12308;SDS011;6217;48.150;17.142;2023-11-19T06:59:18;9.80;;;7.38;;
12308;SDS011;6217;48.150;17.142;2023-11-19T07:03:24;10.00;;;7.68;;
12308;SDS011;6217;48.150;17.142;2023-11-19T07:07:30;11.63;;;7.93;;
12308;SDS011;6217;48.150;17.142;2023-11-19T07:11:38;12.93;;;7.82;;
12308;SDS011;6217;48.150;17.142;2023-11-19T07:15:44;10.38;;;8.40;;
12308;SDS011;6217;48.150;17.142;2023-11-19T07:19:50;13.77;;;7.85;;
12308;SDS011;6217;48.150;17.142;2023-11-19T07:23:56;11.52;;;6.72;;
12308;SDS011;6217;48.150;17.142;2023-11-19T07:28:02;10.95;;;7.78;;
12308;SDS011;6217;48.150;17.142;2023-11-19T07:32:09;9.35;;;7.72;;
12308;SDS011;6217;48.150;17.142;2023-11-19T07:36:16;11.77;;;7.03;;
12308;SDS011;6217;48.150;17.142;2023-11-19T07:40:22;11.63;;;7.82;;
12308;SDS011;6217;48.150;17.142;2023-11-19T07:44:28;9.70;;;7.18;;
12308;SDS011;6217;48.150;17.142;2023-11-19T07:48:34;8.35;;;6.82;;
12308;SDS011;6217;48.150;17.142;2023-11-19T07:52:41;9.10;;;6.13;;
12308;SDS011;6217;48.150;17.142;2023-11-19T07:56:47;8.70;;;6.82;;
12308;SDS011;6217;48.150;17.142;2023-11-19T08:00:54;5.45;;;4.70;;
12308;SDS011;6217;48.150;17.142;2023-11-19T08:05:00;5.85;;;4.70;;
12308;SDS011;6217;48.150;17.142;2023-11-19T08:09:06;8.55;;;5.40;;
12308;SDS011;6217;48.150;17.142;2023-11-19T08:13:18;5.95;;;4.10;;
12308;SDS011;6217;48.150;17.142;2023-11-19T08:17:25;6.05;;;4.55;;
12308;SDS011;6217;48.150;17.142;2023-11-19T08:21:31;6.88;;;4.82;;
12308;SDS011;6217;48.150;17.142;2023-11-19T08:25:37;5.43;;;4.78;;
12308;SDS011;6217;48.150;17.142;2023-11-19T08:29:43;5.22;;;4.38;;
12308;SDS011;6217;48.150;17.142;2023-11-19T08:33:49;4.68;;;4.20;;
12308;SDS011;6217;48.150;17.142;2023-11-19T08:37:55;5.65;;;4.13;;
12308;SDS011;6217;48.150;17.142;2023-11-19T08:42:02;8.20;;;5.40;;
12308;SDS011;6217;48.150;17.142;2023-11-19T08:46:11;7.55;;;4.50;;
12308;SDS011;6217;48.150;17.142;2023-11-19T08:50:17;5.10;;;4.20;;
12308;SDS011;6217;48.150;17.142;2023-11-19T08:54:23;7.25;;;4.93;;
12308;SDS011;6217;48.150;17.142;2023-11-19T08:58:29;5.95;;;4.93;;
12308;SDS011;6217;48.150;17.142;2023-11-19T09:02:36;6.00;;;4.68;;
12308;SDS011;6217;48.150;17.142;2023-11-19T09:06:44;7.00;;;4.95;;
12308;SDS011;6217;48.150;17.142;2023-11-19T09:10:50;7.68;;;4.72;;
12308;SDS011;6217;48.150;17.142;2023-11-19T09:14:58;7.45;;;4.95;;
12308;SDS011;6217;48.150;17.142;2023-11-19T09:19:04;5.85;;;4.70;;
12308;SDS011;6217;48.150;17.142;2023-11-19T09:23:10;6.32;;;3.95;;
12308;SDS011;6217;48.150;17.142;2023-11-19T09:27:17;6.00;;;4.75;;
12308;SDS011;6217;48.150;17.142;2023-11-19T09:31:23;11.05;;;4.93;;
12308;SDS011;6217;48.150;17.142;2023-11-19T09:35:29;5.78;;;4.72;;
12308;SDS011;6217;48.150;17.142;2023-11-19T09:39:35;7.20;;;4.38;;
12308;SDS011;6217;48.150;17.142;2023-11-19T09:43:41;7.53;;;5.35;;
12308;SDS011;6217;48.150;17.142;2023-11-19T09:47:48;7.05;;;5.90;;
12308;SDS011;6217;48.150;17.142;2023-11-19T09:51:57;6.68;;;4.53;;
12308;SDS011;6217;48.150;17.142;2023-11-19T09:56:04;4.63;;;3.88;;
12308;SDS011;6217;48.150;17.142;2023-11-19T10:00:12;6.80;;;4.63;;
12308;SDS011;6217;48.150;17.142;2023-11-19T10:04:20;5.28;;;4.78;;
12308;SDS011;6217;48.150;17.142;2023-11-19T10:08:26;5.25;;;4.55;;
12308;SDS011;6217;48.150;17.142;2023-11-19T10:12:33;10.05;;;4.68;;
12308;SDS011;6217;48.150;17.142;2023-11-19T10:16:38;9.00;;;4.63;;
12308;SDS011;6217;48.150;17.142;2023-11-19T10:20:45;4.93;;;4.40;;
12308;SDS011;6217;48.150;17.142;2023-11-19T10:24:52;9.40;;;5.53;;
12308;SDS011;6217;48.150;17.142;2023-11-19T10:28:57;9.10;;;4.88;;
12308;SDS011;6217;48.150;17.142;2023-11-19T10:37:29;6.07;;;5.47;;
12308;SDS011;6217;48.150;17.142;2023-11-19T10:41:37;8.70;;;4.90;;
12308;SDS011;6217;48.150;17.142;2023-11-19T10:45:43;6.63;;;4.82;;
12308;SDS011;6217;48.150;17.142;2023-11-19T10:49:49;6.85;;;4.85;;
12308;SDS011;6217;48.150;17.142;2023-11-19T10:53:55;7.78;;;5.25;;
12308;SDS011;6217;48.150;17.142;2023-11-19T10:58:11;8.57;;;5.63;;
12308;SDS011;6217;48.150;17.142;2023-11-19T11:02:22;6.25;;;5.00;;
12308;SDS011;6217;48.150;17.142;2023-11-19T11:06:32;12.18;;;5.45;;
12308;SDS011;6217;48.150;17.142;2023-11-19T11:10:39;8.35;;;5.45;;
12308;SDS011;6217;48.150;17.142;2023-11-19T11:15:02;5.53;;;4.45;;
12308;SDS011;6217;48.150;17.142;2023-11-19T11:19:10;9.25;;;5.30;;
12308;SDS011;6217;48.150;17.142;2023-11-19T11:27:51;7.75;;;5.80;;
12308;SDS011;6217;48.150;17.142;2023-11-19T11:36:55;5.88;;;4.53;;
12308;SDS011;6217;48.150;17.142;2023-11-19T11:41:22;6.10;;;5.50;;
12308;SDS011;6217;48.150;17.142;2023-11-19T11:45:39;6.32;;;5.28;;
12308;SDS011;6217;48.150;17.142;2023-11-19T11:49:48;6.70;;;5.20;;
12308;SDS011;6217;48.150;17.142;2023-11-19T11:53:58;8.35;;;5.70;;
12308;SDS011;6217;48.150;17.142;2023-11-19T11:58:06;6.97;;;5.40;;
12308;SDS011;6217;48.150;17.142;2023-11-19T12:02:13;7.22;;;6.15;;
12308;SDS011;6217;48.150;17.142;2023-11-19T12:06:26;7.45;;;5.78;;
12308;SDS011;6217;48.150;17.142;2023-11-19T12:10:36;8.70;;;6.10;;
12308;SDS011;6217;48.150;17.142;2023-11-19T12:19:07;6.57;;;5.35;;
12308;SDS011;6217;48.150;17.142;2023-11-19T12:23:13;6.68;;;6.05;;
12308;SDS011;6217;48.150;17.142;2023-11-19T12:27:20;8.38;;;5.70;;
12308;SDS011;6217;48.150;17.142;2023-11-19T12:31:27;8.57;;;6.90;;
12308;SDS011;6217;48.150;17.142;2023-11-19T12:35:33;10.73;;;6.63;;
12308;SDS011;6217;48.150;17.142;2023-11-19T12:39:48;7.15;;;6.10;;
12308;SDS011;6217;48.150;17.142;2023-11-19T12:43:54;9.55;;;6.45;;
12308;SDS011;6217;48.150;17.142;2023-11-19T12:48:06;12.57;;;7.47;;
12308;SDS011;6217;48.150;17.142;2023-11-19T12:52:14;9.65;;;6.68;;
12308;SDS011;6217;48.150;17.142;2023-11-19T12:56:21;10.10;;;7.07;;
12308;SDS011;6217;48.150;17.142;2023-11-19T13:00:27;8.10;;;5.82;;
12308;SDS011;6217;48.150;17.142;2023-11-19T13:04:34;8.93;;;5.97;;
12308;SDS011;6217;48.150;17.142;2023-11-19T13:13:04;9.30;;;6.72;;
12308;SDS011;6217;48.150;17.142;2023-11-19T13:17:14;11.27;;;6.60;;
12308;SDS011;6217;48.150;17.142;2023-11-19T13:21:20;7.25;;;6.13;;
12308;SDS011;6217;48.150;17.142;2023-11-19T13:25:26;5.72;;;4.93;;
12308;SDS011;6217;48.150;17.142;2023-11-19T13:29:33;10.23;;;6.38;;
12308;SDS011;6217;48.150;17.142;2023-11-19T13:33:40;10.35;;;6.80;;
12308;SDS011;6217;48.150;17.142;2023-11-19T13:37:47;8.40;;;7.07;;
12308;SDS011;6217;48.150;17.142;2023-11-19T13:41:53;8.88;;;6.50;;
12308;SDS011;6217;48.150;17.142;2023-11-19T13:45:59;11.07;;;7.43;;
12308;SDS011;6217;48.150;17.142;2023-11-19T13:50:05;7.85;;;6.47;;
12308;SDS011;6217;48.150;17.142;2023-11-19T13:54:11;10.35;;;7.13;;
12308;SDS011;6217;48.150;17.142;2023-11-19T13:58:19;15.57;;;7.25;;
12308;SDS011;6217;48.150;17.142;2023-11-19T14:02:26;9.07;;;6.82;;
12308;SDS011;6217;48.150;17.142;2023-11-19T14:06:32;8.80;;;6.75;;
12308;SDS011;6217;48.150;17.142;2023-11-19T14:10:38;9.07;;;7.70;;
12308;SDS011;6217;48.150;17.142;2023-11-19T14:14:45;10.40;;;7.38;;
12308;SDS011;6217;48.150;17.142;2023-11-19T14:18:51;9.25;;;7.15;;
12308;SDS011;6217;48.150;17.142;2023-11-19T14:22:57;11.27;;;8.75;;
12308;SDS011;6217;48.150;17.142;2023-11-19T14:27:03;9.80;;;6.78;;
12308;SDS011;6217;48.150;17.142;2023-11-19T14:31:09;10.55;;;8.43;;
12308;SDS011;6217;48.150;17.142;2023-11-19T14:35:15;10.18;;;8.30;;
12308;SDS011;6217;48.150;17.142;2023-11-19T14:39:21;10.30;;;8.05;;
12308;SDS011;6217;48.150;17.142;2023-11-19T14:43:27;9.10;;;7.18;;
12308;SDS011;6217;48.150;17.142;2023-11-19T14:47:33;9.60;;;7.60;;
12308;SDS011;6217;48.150;17.142;2023-11-19T14:51:39;10.13;;;7.55;;
12308;SDS011;6217;48.150;17.142;2023-11-19T14:55:45;10.00;;;7.43;;
12308;SDS011;6217;48.150;17.142;2023-11-19T14:59:51;16.13;;;9.23;;
12308;SDS011;6217;48.150;17.142;2023-11-19T15:03:57;11.52;;;8.25;;
12308;SDS011;6217;48.150;17.142;2023-11-19T15:08:03;10.07;;;7.95;;
12308;SDS011;6217;48.150;17.142;2023-11-19T15:12:09;10.90;;;8.10;;
12308;SDS011;6217;48.150;17.142;2023-11-19T15:16:15;11.85;;;9.35;;
12308;SDS011;6217;48.150;17.142;2023-11-19T15:20:27;11.07;;;8.43;;
12308;SDS011;6217;48.150;17.142;2023-11-19T15:24:35;13.60;;;9.23;;
12308;SDS011;6217;48.150;17.142;2023-11-19T15:28:44;13.27;;;10.27;;
12308;SDS011;6217;48.150;17.142;2023-11-19T15:32:50;13.45;;;9.60;;
12308;SDS011;6217;48.150;17.142;2023-11-19T15:36:56;19.15;;;10.25;;
12308;SDS011;6217;48.150;17.142;2023-11-19T15:41:02;15.75;;;9.23;;
12308;SDS011;6217;48.150;17.142;2023-11-19T15:45:10;14.80;;;10.57;;
12308;SDS011;6217;48.150;17.142;2023-11-19T15:49:17;15.63;;;10.90;;
12308;SDS011;6217;48.150;17.142;2023-11-19T15:53:23;15.50;;;11.32;;
12308;SDS011;6217;48.150;17.142;2023-11-19T15:57:28;14.38;;;9.93;;
12308;SDS011;6217;48.150;17.142;2023-11-19T16:01:34;15.60;;;11.27;;
12308;SDS011;6217;48.150;17.142;2023-11-19T16:05:40;18.70;;;11.57;;
12308;SDS011;6217;48.150;17.142;2023-11-19T16:09:47;16.73;;;12.05;;
12308;SDS011;6217;48.150;17.142;2023-11-19T16:13:53;14.05;;;10.70;;
12308;SDS011;6217;48.150;17.142;2023-11-19T16:17:59;15.05;;;11.25;;
12308;SDS011;6217;48.150;17.142;2023-11-19T16:22:06;14.40;;;11.18;;
12308;SDS011;6217;48.150;17.142;2023-11-19T16:26:16;16.85;;;10.73;;
12308;SDS011;6217;48.150;17.142;2023-11-19T16:30:22;14.63;;;11.05;;
12308;SDS011;6217;48.150;17.142;2023-11-19T16:34:28;18.40;;;12.25;;
12308;SDS011;6217;48.150;17.142;2023-11-19T16:38:35;16.40;;;11.43;;
12308;SDS011;6217;48.150;17.142;2023-11-19T16:42:41;16.25;;;11.48;;
12308;SDS011;6217;48.150;17.142;2023-11-19T16:46:47;19.55;;;13.68;;
12308;SDS011;6217;48.150;17.142;2023-11-19T16:50:53;16.90;;;12.57;;
12308;SDS011;6217;48.150;17.142;2023-11-19T16:54:59;16.02;;;12.85;;
12308;SDS011;6217;48.150;17.142;2023-11-19T16:59:07;17.52;;;13.02;;
12308;SDS011;6217;48.150;17.142;2023-11-19T17:03:14;20.38;;;13.35;;
12308;SDS011;6217;48.150;17.142;2023-11-19T17:07:20;17.48;;;12.55;;
12308;SDS011;6217;48.150;17.142;2023-11-19T17:11:26;17.00;;;12.68;;
12308;SDS011;6217;48.150;17.142;2023-11-19T17:15:32;18.38;;;13.50;;
12308;SDS011;6217;48.150;17.142;2023-11-19T17:19:37;18.77;;;11.88;;
12308;SDS011;6217;48.150;17.142;2023-11-19T17:23:44;18.27;;;12.85;;
12308;SDS011;6217;48.150;17.142;2023-11-19T17:27:50;21.45;;;14.07;;
12308;SDS011;6217;48.150;17.142;2023-11-19T17:31:56;19.02;;;12.60;;
12308;SDS011;6217;48.150;17.142;2023-11-19T17:36:02;19.08;;;11.98;;
12308;SDS011;6217;48.150;17.142;2023-11-19T17:40:11;20.90;;;14.65;;
12308;SDS011;6217;48.150;17.142;2023-11-19T17:44:18;20.88;;;14.57;;
12308;SDS011;6217;48.150;17.142;2023-11-19T17:48:24;24.52;;;14.80;;
12308;SDS011;6217;48.150;17.142;2023-11-19T17:52:30;21.27;;;15.00;;
12308;SDS011;6217;48.150;17.142;2023-11-19T17:56:37;19.63;;;12.63;;
12308;SDS011;6217;48.150;17.142;2023-11-19T18:00:44;20.15;;;14.15;;
12308;SDS011;6217;48.150;17.142;2023-11-19T18:04:50;21.48;;;14.10;;
12308;SDS011;6217;48.150;17.142;2023-11-19T18:08:56;20.35;;;13.48;;
12308;SDS011;6217;48.150;17.142;2023-11-19T18:13:02;21.20;;;13.90;;
12308;SDS011;6217;48.150;17.142;2023-11-19T18:17:08;20.98;;;13.52;;
12308;SDS011;6217;48.150;17.142;2023-11-19T18:21:16;17.45;;;13.15;;
12308;SDS011;6217;48.150;17.142;2023-11-19T18:25:22;21.35;;;14.63;;
12308;SDS011;6217;48.150;17.142;2023-11-19T18:29:29;20.15;;;12.82;;
12308;SDS011;6217;48.150;17.142;2023-11-19T18:33:34;21.33;;;14.18;;
12308;SDS011;6217;48.150;17.142;2023-11-19T18:37:40;22.08;;;15.30;;
12308;SDS011;6217;48.150;17.142;2023-11-19T18:41:47;17.80;;;13.18;;
12308;SDS011;6217;48.150;17.142;2023-11-19T18:45:53;17.10;;;13.15;;
12308;SDS011;6217;48.150;17.142;2023-11-19T18:49:59;21.05;;;14.18;;
12308;SDS011;6217;48.150;17.142;2023-11-19T18:54:05;21.30;;;14.93;;
12308;SDS011;6217;48.150;17.142;2023-11-19T18:58:11;20.05;;;13.95;;
12308;SDS011;6217;48.150;17.142;2023-11-19T19:02:17;25.42;;;15.57;;
12308;SDS011;6217;48.150;17.142;2023-11-19T19:06:23;24.42;;;15.52;;
12308;SDS011;6217;48.150;17.142;2023-11-19T19:10:30;23.05;;;15.70;;
12308;SDS011;6217;48.150;17.142;2023-11-19T19:14:36;25.08;;;15.32;;
12308;SDS011;6217;48.150;17.142;2023-11-19T19:18:43;22.88;;;14.88;;
12308;SDS011;6217;48.150;17.142;2023-11-19T19:22:49;23.40;;;15.15;;
12308;SDS011;6217;48.150;17.142;2023-11-19T19:26:55;22.40;;;15.48;;
12308;SDS011;6217;48.150;17.142;2023-11-19T19:31:01;22.85;;;15.07;;
12308;SDS011;6217;48.150;17.142;2023-11-19T19:35:07;21.45;;;14.30;;
12308;SDS011;6217;48.150;17.142;2023-11-19T19:39:13;23.17;;;16.67;;
12308;SDS011;6217;48.150;17.142;2023-11-19T19:43:20;20.52;;;13.43;;
12308;SDS011;6217;48.150;17.142;2023-11-19T19:47:26;22.25;;;15.55;;
12308;SDS011;6217;48.150;17.142;2023-11-19T19:51:32;23.10;;;15.73;;
12308;SDS011;6217;48.150;17.142;2023-11-19T19:55:38;22.30;;;15.60;;
12308;SDS011;6217;48.150;17.142;2023-11-19T19:59:43;25.48;;;16.33;;
12308;SDS011;6217;48.150;17.142;2023-11-19T20:03:49;19.85;;;15.10;;
12308;SDS011;6217;48.150;17.142;2023-11-19T20:07:55;35.30;;;15.30;;
12308;SDS011;6217;48.150;17.142;2023-11-19T20:12:04;20.35;;;14.05;;
12308;SDS011;6217;48.150;17.142;2023-11-19T20:16:11;24.08;;;15.52;;
12308;SDS011;6217;48.150;17.142;2023-11-19T20:20:17;22.25;;;14.88;;
12308;SDS011;6217;48.150;17.142;2023-11-19T20:24:23;21.33;;;14.65;;
12308;SDS011;6217;48.150;17.142;2023-11-19T20:28:29;23.80;;;16.30;;
12308;SDS011;6217;48.150;17.142;2023-11-19T20:32:36;21.08;;;14.75;;
12308;SDS011;6217;48.150;17.142;2023-11-19T20:36:42;20.60;;;14.27;;
12308;SDS011;6217;48.150;17.142;2023-11-19T20:40:48;25.10;;;17.00;;
12308;SDS011;6217;48.150;17.142;2023-11-19T20:44:54;21.55;;;15.18;;
12308;SDS011;6217;48.150;17.142;2023-11-19T20:49:01;26.27;;;17.63;;
12308;SDS011;6217;48.150;17.142;2023-11-19T20:53:07;26.60;;;18.13;;
12308;SDS011;6217;48.150;17.142;2023-11-19T20:57:13;25.58;;;17.58;;
12308;SDS011;6217;48.150;17.142;2023-11-19T21:01:19;28.45;;;18.75;;
12308;SDS011;6217;48.150;17.142;2023-11-19T21:05:26;22.08;;;16.00;;
12308;SDS011;6217;48.150;17.142;2023-11-19T21:09:32;26.60;;;17.17;;
12308;SDS011;6217;48.150;17.142;2023-11-19T21:13:38;26.73;;;17.95;;
12308;SDS011;6217;48.150;17.142;2023-11-19T21:17:44;28.17;;;17.95;;
12308;SDS011;6217;48.150;17.142;2023-11-19T21:21:49;39.60;;;29.85;;
12308;SDS011;6217;48.150;17.142;2023-11-19T21:25:59;33.15;;;20.83;;
12308;SDS011;6217;48.150;17.142;2023-11-19T21:30:05;38.58;;;22.75;;
12308;SDS011;6217;48.150;17.142;2023-11-19T21:34:12;35.03;;;20.10;;
12308;SDS011;6217;48.150;17.142;2023-11-19T21:38:18;30.05;;;18.58;;
12308;SDS011;6217;48.150;17.142;2023-11-19T21:42:26;39.78;;;21.73;;
12308;SDS011;6217;48.150;17.142;2023-11-19T21:46:33;33.22;;;20.95;;
12308;SDS011;6217;48.150;17.142;2023-11-19T21:50:39;36.25;;;21.02;;
12308;SDS011;6217;48.150;17.142;2023-11-19T21:54:47;35.70;;;20.67;;
12308;SDS011;6217;48.150;17.142;2023-11-19T21:58:56;33.97;;;21.52;;
12308;SDS011;6217;48.150;17.142;2023-11-19T22:03:01;36.75;;;19.48;;
12308;SDS011;6217;48.150;17.142;2023-11-19T22:07:07;31.38;;;19.73;;
12308;SDS011;6217;48.150;17.142;2023-11-19T22:11:14;32.50;;;19.52;;
12308;SDS011;6217;48.150;17.142;2023-11-19T22:15:20;34.10;;;20.25;;
12308;SDS011;6217;48.150;17.142;2023-11-19T22:19:25;36.22;;;20.85;;
12308;SDS011;6217;48.150;17.142;2023-11-19T22:23:31;39.78;;;20.90;;
12308;SDS011;6217;48.150;17.142;2023-11-19T22:27:37;38.25;;;22.65;;
12308;SDS011;6217;48.150;17.142;2023-11-19T22:31:43;32.35;;;20.88;;
12308;SDS011;6217;48.150;17.142;2023-11-19T22:35:49;32.78;;;20.48;;
12308;SDS011;6217;48.150;17.142;2023-11-19T22:39:55;36.30;;;21.88;;
12308;SDS011;6217;48.150;17.142;2023-11-19T22:44:01;33.13;;;20.85;;
12308;SDS011;6217;48.150;17.142;2023-11-19T22:48:07;34.05;;;21.15;;
12308;SDS011;6217;48.150;17.142;2023-11-19T22:52:13;35.03;;;22.25;;
12308;SDS011;6217;48.150;17.142;2023-11-19T22:56:19;32.13;;;20.52;;
12308;SDS011;6217;48.150;17.142;2023-11-19T23:00:25;36.33;;;21.77;;
12308;SDS011;6217;48.150;17.142;2023-11-19T23:04:45;34.42;;;20.90;;
12308;SDS011;6217;48.150;17.142;2023-11-19T23:08:51;32.70;;;19.45;;
12308;SDS011;6217;48.150;17.142;2023-11-19T23:12:57;30.25;;;20.60;;
12308;SDS011;6217;48.150;17.142;2023-11-19T23:17:04;35.75;;;20.55;;
12308;SDS011;6217;48.150;17.142;2023-11-19T23:21:10;27.95;;;18.55;;
12308;SDS011;6217;48.150;17.142;2023-11-19T23:25:19;33.38;;;20.02;;
12308;SDS011;6217;48.150;17.142;2023-11-19T23:29:25;34.13;;;21.05;;
12308;SDS011;6217;48.150;17.142;2023-11-19T23:33:31;27.92;;;18.17;;
12308;SDS011;6217;48.150;17.142;2023-11-19T23:37:37;32.60;;;20.63;;
12308;SDS011;6217;48.150;17.142;2023-11-19T23:41:43;27.35;;;17.80;;
12308;SDS011;6217;48.150;17.142;2023-11-19T23:45:49;29.10;;;18.15;;
12308;SDS011;6217;48.150;17.142;2023-11-19T23:49:55;26.65;;;16.67;;
12308;SDS011;6217;48.150;17.142;2023-11-19T23:54:01;25.17;;;15.68;;
12308;SDS011;6217;48.150;17.142;2023-11-19T23:58:07;24.98;;;16.80;;
